createdAt,value
2023-09-30T00:00:06.522Z,80.48
2023-09-30T00:02:33.356Z,80.86
2023-09-30T00:05:00.175Z,79.80
2023-09-30T00:07:27.706Z,80.71
2023-09-30T00:09:54.484Z,80.93
2023-09-30T00:12:21.857Z,79.79
2023-09-30T00:14:49.498Z,79.98
2023-09-30T00:17:16.285Z,81.22
2023-09-30T00:19:43.044Z,80.46
2023-09-30T00:22:09.754Z,80.41
2023-09-30T00:24:36.621Z,80.97
2023-09-30T00:27:03.530Z,80.40
2023-09-30T00:29:30.298Z,80.45
2023-09-30T00:31:57.100Z,80.38
2023-09-30T00:34:23.786Z,82.24
2023-09-30T00:36:50.460Z,82.61
2023-09-30T00:39:17.129Z,82.65
2023-09-30T00:41:43.873Z,82.85
2023-09-30T00:44:10.639Z,83.14
2023-09-30T00:46:38.734Z,81.92
2023-09-30T00:49:05.592Z,81.17
2023-09-30T00:51:32.332Z,81.29
2023-09-30T00:54:00.339Z,80.96
2023-09-30T00:56:29.677Z,82.35
2023-09-30T00:58:56.332Z,81.35
2023-09-30T01:01:23.121Z,82.20
2023-09-30T01:03:50.514Z,83.13
2023-09-30T01:06:17.515Z,83.51
2023-09-30T01:08:44.308Z,82.72
2023-09-30T01:11:11.117Z,82.39
2023-09-30T01:13:38.632Z,81.54
2023-09-30T01:16:11.101Z,82.35
2023-09-30T01:18:38.278Z,81.62
2023-09-30T01:21:06.295Z,80.91
2023-09-30T01:23:40.047Z,81.47
2023-09-30T01:26:11.114Z,81.23
2023-09-30T01:28:38.007Z,80.79
2023-09-30T01:31:05.447Z,80.58
2023-09-30T01:33:33.071Z,80.72
2023-09-30T01:36:00.790Z,82.20
2023-09-30T01:38:27.520Z,81.54
2023-09-30T01:40:56.059Z,81.13
2023-09-30T01:43:24.286Z,80.98
2023-09-30T01:45:51.187Z,80.55
2023-09-30T01:48:18.136Z,80.14
2023-09-30T01:50:44.955Z,80.80
2023-09-30T01:53:11.644Z,80.22
2023-09-30T01:55:38.421Z,80.93
2023-09-30T01:58:05.174Z,82.10
2023-09-30T02:00:31.972Z,82.79
2023-09-30T02:02:58.910Z,83.10
2023-09-30T02:05:25.829Z,84.83
2023-09-30T02:07:52.824Z,84.42
2023-09-30T02:10:19.863Z,83.82
2023-09-30T02:12:47.379Z,82.83
2023-09-30T02:15:14.543Z,83.61
2023-09-30T02:17:41.567Z,83.95
2023-09-30T02:20:13.940Z,86.07
2023-09-30T02:22:40.860Z,86.49
2023-09-30T02:25:08.968Z,85.70
2023-09-30T02:27:35.695Z,84.70
2023-09-30T02:30:02.500Z,84.81
2023-09-30T02:32:30.028Z,84.31
2023-09-30T02:34:56.789Z,83.22
2023-09-30T02:37:23.517Z,83.18
2023-09-30T02:39:50.360Z,84.47
2023-09-30T02:42:17.131Z,84.37
2023-09-30T02:44:43.843Z,84.73
2023-09-30T02:47:10.529Z,84.64
2023-09-30T02:49:37.977Z,83.47
2023-09-30T02:52:04.796Z,82.92
2023-09-30T02:54:32.287Z,82.27
2023-09-30T02:56:59.032Z,82.49
2023-09-30T02:59:26.105Z,83.23
2023-09-30T03:01:52.973Z,81.59
2023-09-30T03:04:20.785Z,84.02
2023-09-30T03:06:48.053Z,84.07
2023-09-30T03:09:16.401Z,85.30
2023-09-30T03:11:47.584Z,85.45
2023-09-30T03:14:14.298Z,85.23
2023-09-30T03:16:42.666Z,85.24
2023-09-30T03:19:09.708Z,85.00
2023-09-30T03:21:36.515Z,84.28
2023-09-30T03:24:09.138Z,83.54
2023-09-30T03:26:35.972Z,83.42
2023-09-30T03:29:03.289Z,83.84
2023-09-30T03:31:30.064Z,85.45
2023-09-30T03:33:57.188Z,86.05
2023-09-30T03:36:25.785Z,85.74
2023-09-30T03:39:00.164Z,84.39
2023-09-30T03:41:26.657Z,85.50
2023-09-30T03:43:54.962Z,85.35
2023-09-30T03:46:21.873Z,84.85
2023-09-30T03:48:48.649Z,85.72
2023-09-30T03:51:15.868Z,85.27
2023-09-30T03:53:43.430Z,85.29
2023-09-30T03:56:12.889Z,85.04
2023-09-30T03:58:40.600Z,84.25
2023-09-30T04:01:07.435Z,84.03
2023-09-30T04:03:34.901Z,84.92
2023-09-30T04:06:03.610Z,85.24
2023-09-30T04:08:30.325Z,85.16
2023-09-30T04:10:56.952Z,84.02
2023-09-30T04:13:23.720Z,83.96
2023-09-30T04:15:50.716Z,84.34
2023-09-30T04:18:17.596Z,84.48
2023-09-30T04:20:46.125Z,84.42
2023-09-30T04:23:13.935Z,82.80
2023-09-30T04:25:41.288Z,83.50
2023-09-30T04:28:10.869Z,85.73
2023-09-30T04:30:38.928Z,86.29
2023-09-30T04:33:06.052Z,84.93
2023-09-30T04:35:32.914Z,84.29
2023-09-30T04:38:02.624Z,84.69
2023-09-30T04:40:30.807Z,85.08
2023-09-30T04:42:59.760Z,84.16
2023-09-30T04:45:27.424Z,84.95
2023-09-30T04:47:55.038Z,83.58
2023-09-30T04:50:23.497Z,82.94
2023-09-30T04:52:52.333Z,82.54
2023-09-30T04:55:19.903Z,83.53
2023-09-30T04:57:47.375Z,83.52
2023-09-30T05:00:18.712Z,82.91
2023-09-30T05:02:46.297Z,82.72
2023-09-30T05:05:13.173Z,82.87
2023-09-30T05:07:39.896Z,84.87
2023-09-30T05:10:11.228Z,86.12
2023-09-30T05:12:38.457Z,85.82
2023-09-30T05:15:07.223Z,84.58
2023-09-30T05:17:34.101Z,84.13
2023-09-30T05:20:00.943Z,84.68
2023-09-30T05:22:28.195Z,85.58
2023-09-30T05:24:55.088Z,83.82
2023-09-30T05:27:21.919Z,83.74
2023-09-30T05:29:48.659Z,83.85
2023-09-30T05:32:15.674Z,83.45
2023-09-30T05:34:42.517Z,83.88
2023-09-30T05:37:09.236Z,83.72
2023-09-30T05:39:36.292Z,84.99
2023-09-30T05:42:04.222Z,83.78
2023-09-30T05:44:31.026Z,83.64
2023-09-30T05:46:57.784Z,83.34
2023-09-30T05:49:24.967Z,84.38
2023-09-30T05:51:52.001Z,84.02
2023-09-30T05:54:18.847Z,83.78
2023-09-30T05:56:46.116Z,82.16
2023-09-30T05:59:14.619Z,81.19
2023-09-30T06:01:42.202Z,80.70
2023-09-30T06:04:09.084Z,80.28
2023-09-30T06:06:35.903Z,80.38
2023-09-30T06:09:02.604Z,80.58
2023-09-30T06:11:29.718Z,81.06
2023-09-30T06:13:56.780Z,79.07
2023-09-30T06:16:25.300Z,79.76
2023-09-30T06:18:52.167Z,80.00
2023-09-30T06:21:22.129Z,80.23
2023-09-30T06:23:49.840Z,80.16
2023-09-30T06:26:17.811Z,81.45
2023-09-30T06:28:44.886Z,79.82
2023-09-30T06:31:11.749Z,78.90
2023-09-30T06:33:39.747Z,79.58
2023-09-30T06:36:10.578Z,77.30
2023-09-30T06:38:38.828Z,77.62
2023-09-30T06:41:06.321Z,77.67
2023-09-30T06:43:34.307Z,76.59
2023-09-30T06:46:01.561Z,76.73
2023-09-30T06:48:28.552Z,75.43
2023-09-30T06:50:55.645Z,74.28
2023-09-30T06:53:25.411Z,74.13
2023-09-30T06:55:52.580Z,73.72
2023-09-30T06:58:22.437Z,73.30
2023-09-30T07:00:54.867Z,72.69
2023-09-30T07:03:24.274Z,72.42
2023-09-30T07:05:55.405Z,69.82
2023-09-30T07:08:22.390Z,68.92
2023-09-30T07:10:50.879Z,65.38
2023-09-30T07:13:17.828Z,66.78
2023-09-30T07:15:44.763Z,64.24
2023-09-30T07:18:13.185Z,61.21
2023-09-30T07:20:40.020Z,59.67
2023-09-30T07:23:18.216Z,58.62
2023-09-30T07:25:46.265Z,57.41
2023-09-30T07:28:14.557Z,55.06
2023-09-30T07:30:41.589Z,55.48
2023-09-30T07:33:08.528Z,55.66
2023-09-30T07:35:35.645Z,54.03
2023-09-30T07:38:02.624Z,53.56
2023-09-30T07:40:29.397Z,53.16
2023-09-30T07:42:57.162Z,52.73
2023-09-30T07:45:24.179Z,52.58
2023-09-30T07:47:52.448Z,50.42
2023-09-30T07:50:20.243Z,49.56
2023-09-30T07:52:47.287Z,49.69
2023-09-30T07:55:14.231Z,49.96
2023-09-30T07:57:42.889Z,50.04
2023-09-30T08:00:16.295Z,47.70
2023-09-30T08:02:43.614Z,47.57
2023-09-30T08:05:10.909Z,47.66
2023-09-30T08:07:38.301Z,48.82
2023-09-30T08:10:06.605Z,48.73
2023-09-30T08:12:34.251Z,48.24
2023-09-30T08:15:01.112Z,45.13
2023-09-30T08:17:27.939Z,46.66
2023-09-30T08:19:54.730Z,46.40
2023-09-30T08:22:22.442Z,46.22
2023-09-30T08:24:49.238Z,47.22
2023-09-30T08:27:16.423Z,47.94
2023-09-30T08:29:43.236Z,45.90
2023-09-30T08:32:10.073Z,45.13
2023-09-30T08:34:36.878Z,45.25
2023-09-30T08:37:03.528Z,43.48
2023-09-30T08:39:30.215Z,43.10
2023-09-30T08:41:57.465Z,43.41
2023-09-30T08:44:24.434Z,43.22
2023-09-30T08:46:51.111Z,40.86
2023-09-30T08:49:17.751Z,40.24
2023-09-30T08:51:44.622Z,39.43
2023-09-30T08:54:11.512Z,41.08
2023-09-30T08:56:38.274Z,40.54
2023-09-30T08:59:05.046Z,40.77
2023-09-30T09:01:32.747Z,39.50
2023-09-30T09:03:59.728Z,39.51
2023-09-30T09:06:26.933Z,40.55
2023-09-30T09:08:54.087Z,38.02
2023-09-30T09:11:21.090Z,36.55
2023-09-30T09:13:54.589Z,38.17
2023-09-30T09:16:21.508Z,35.25
2023-09-30T09:18:49.123Z,35.79
2023-09-30T09:21:22.040Z,34.59
2023-09-30T09:23:49.671Z,33.49
2023-09-30T09:26:27.987Z,34.76
2023-09-30T09:28:59.071Z,35.73
2023-09-30T09:31:27.604Z,35.49
2023-09-30T09:33:54.561Z,35.80
2023-09-30T09:36:21.748Z,35.28
2023-09-30T09:38:54.606Z,33.91
2023-09-30T09:41:21.723Z,33.73
2023-09-30T09:43:52.035Z,32.12
2023-09-30T09:46:18.790Z,32.25
2023-09-30T09:48:47.532Z,32.25
2023-09-30T09:51:14.468Z,33.57
2023-09-30T09:53:42.421Z,34.09
2023-09-30T09:56:11.169Z,32.01
2023-09-30T09:58:44.619Z,32.00
2023-09-30T10:01:11.705Z,32.65
2023-09-30T10:03:41.571Z,34.41
2023-09-30T10:06:10.121Z,33.38
2023-09-30T10:08:39.073Z,34.12
2023-09-30T10:11:05.776Z,33.30
2023-09-30T10:13:51.571Z,32.52
2023-09-30T10:16:41.370Z,33.52
2023-09-30T10:19:19.311Z,35.14
2023-09-30T10:22:27.048Z,36.76
2023-09-30T10:24:57.389Z,35.89
2023-09-30T10:27:30.703Z,35.02
2023-09-30T10:30:01.262Z,36.21
2023-09-30T10:32:52.959Z,34.96
2023-09-30T10:35:42.853Z,34.05
2023-09-30T10:38:36.219Z,33.03
2023-09-30T10:41:03.664Z,32.97
2023-09-30T10:43:34.347Z,31.91
2023-09-30T10:46:01.601Z,33.48
2023-09-30T10:48:37.770Z,33.76
2023-09-30T10:51:22.694Z,32.25
2023-09-30T10:53:53.504Z,32.57
2023-09-30T10:56:20.723Z,32.08
2023-09-30T10:58:48.318Z,32.09
2023-09-30T11:01:17.499Z,33.72
2023-09-30T11:03:45.303Z,33.86
2023-09-30T11:06:14.862Z,33.56
2023-09-30T11:08:45.529Z,34.03
2023-09-30T11:11:12.210Z,31.68
2023-09-30T11:13:40.371Z,31.42
2023-09-30T11:16:07.338Z,32.46
2023-09-30T11:18:34.272Z,31.88
2023-09-30T11:21:14.578Z,30.49
2023-09-30T11:23:42.670Z,31.00
2023-09-30T11:26:09.785Z,29.21
2023-09-30T11:28:41.101Z,29.61
2023-09-30T11:31:15.887Z,29.54
2023-09-30T11:33:54.011Z,29.83
2023-09-30T11:36:22.134Z,28.57
2023-09-30T11:38:50.184Z,28.02
2023-09-30T11:41:19.614Z,28.90
2023-09-30T11:44:12.323Z,29.56
2023-09-30T11:46:57.136Z,30.10
2023-09-30T11:49:30.157Z,30.10
2023-09-30T11:52:01.673Z,29.59
2023-09-30T11:54:33.839Z,27.94
2023-09-30T11:57:04.497Z,28.36
2023-09-30T11:59:31.933Z,29.13
2023-09-30T12:02:13.481Z,29.62
2023-09-30T12:04:42.891Z,28.81
2023-09-30T12:07:09.730Z,30.21
2023-09-30T12:09:38.654Z,30.24
2023-09-30T12:12:05.972Z,29.42
2023-09-30T12:14:33.175Z,30.22
2023-09-30T12:16:59.923Z,29.23
2023-09-30T12:19:27.917Z,29.94
2023-09-30T12:21:54.800Z,30.50
2023-09-30T12:24:23.065Z,30.52
2023-09-30T12:26:50.359Z,30.29
2023-09-30T12:29:18.668Z,30.25
2023-09-30T12:31:55.543Z,31.49
2023-09-30T12:34:28.154Z,30.92
2023-09-30T12:36:57.120Z,30.49
2023-09-30T12:39:26.182Z,29.95
2023-09-30T12:41:53.562Z,31.21
2023-09-30T12:44:20.692Z,31.84
2023-09-30T12:46:47.724Z,31.40
2023-09-30T12:49:15.132Z,31.32
2023-09-30T12:51:42.169Z,30.43
2023-09-30T12:54:10.040Z,31.03
2023-09-30T12:56:36.768Z,29.90
2023-09-30T12:59:04.144Z,30.31
2023-09-30T13:01:32.996Z,31.06
2023-09-30T13:04:00.236Z,32.39
2023-09-30T13:06:27.481Z,32.78
2023-09-30T13:08:54.191Z,34.10
2023-09-30T13:11:20.852Z,33.00
2023-09-30T13:13:47.530Z,32.00
2023-09-30T13:16:14.411Z,31.41
2023-09-30T13:18:41.289Z,30.62
2023-09-30T13:21:08.098Z,31.44
2023-09-30T13:23:35.340Z,30.99
2023-09-30T13:26:02.727Z,30.83
2023-09-30T13:28:29.798Z,31.88
2023-09-30T13:30:56.721Z,31.99
2023-09-30T13:33:23.530Z,32.36
2023-09-30T13:35:50.237Z,31.65
2023-09-30T13:38:20.426Z,32.46
2023-09-30T13:40:47.511Z,31.95
2023-09-30T13:43:14.389Z,30.66
2023-09-30T13:45:41.609Z,32.21
2023-09-30T13:48:08.523Z,32.03
2023-09-30T13:50:36.182Z,31.63
2023-09-30T13:53:04.185Z,31.35
2023-09-30T13:55:31.239Z,32.61
2023-09-30T13:57:58.103Z,32.31
2023-09-30T14:00:24.775Z,33.02
2023-09-30T14:02:52.690Z,32.67
2023-09-30T14:05:21.424Z,34.60
2023-09-30T14:07:49.422Z,33.70
2023-09-30T14:10:16.525Z,34.31
2023-09-30T14:12:44.049Z,34.05
2023-09-30T14:15:11.414Z,33.41
2023-09-30T14:17:38.589Z,33.09
2023-09-30T14:20:07.309Z,33.61
2023-09-30T14:22:34.553Z,33.34
2023-09-30T14:25:01.507Z,33.27
2023-09-30T14:27:28.514Z,32.55
2023-09-30T14:29:55.241Z,34.42
2023-09-30T14:32:22.021Z,32.68
2023-09-30T14:34:48.926Z,32.56
2023-09-30T14:37:15.793Z,33.21
2023-09-30T14:39:42.751Z,33.49
2023-09-30T14:42:09.643Z,34.41
2023-09-30T14:44:36.492Z,34.75
2023-09-30T14:47:03.725Z,34.31
2023-09-30T14:49:32.202Z,34.79
2023-09-30T14:51:59.005Z,35.09
2023-09-30T14:54:26.186Z,34.94
2023-09-30T14:56:53.536Z,35.41
2023-09-30T14:59:20.654Z,35.63
2023-09-30T15:01:47.823Z,35.96
2023-09-30T15:04:16.731Z,35.95
2023-09-30T15:06:43.812Z,35.43
2023-09-30T15:09:13.113Z,35.85
2023-09-30T15:11:40.198Z,37.44
2023-09-30T15:14:06.996Z,37.70
2023-09-30T15:16:33.998Z,37.36
2023-09-30T15:19:00.883Z,37.47
2023-09-30T15:21:27.903Z,37.01
2023-09-30T15:23:54.545Z,37.42
2023-09-30T15:26:21.408Z,37.29
2023-09-30T15:28:48.925Z,37.80
2023-09-30T15:31:16.262Z,37.59
2023-09-30T15:33:44.611Z,38.78
2023-09-30T15:36:12.183Z,38.59
2023-09-30T15:38:38.960Z,38.97
2023-09-30T15:41:05.701Z,38.11
2023-09-30T15:43:33.955Z,39.13
2023-09-30T15:46:01.677Z,39.88
2023-09-30T15:48:28.726Z,39.82
2023-09-30T15:50:55.447Z,40.08
2023-09-30T15:53:22.239Z,39.62
2023-09-30T15:55:49.024Z,40.61
2023-09-30T15:58:16.375Z,40.80
2023-09-30T16:00:43.465Z,41.39
2023-09-30T16:03:10.600Z,41.30
2023-09-30T16:05:38.586Z,40.04
2023-09-30T16:08:06.537Z,40.97
2023-09-30T16:10:33.450Z,40.66
2023-09-30T16:13:00.919Z,41.34
2023-09-30T16:15:28.057Z,41.91
2023-09-30T16:17:55.005Z,43.61
2023-09-30T16:20:26.200Z,42.99
2023-09-30T16:22:53.666Z,44.48
2023-09-30T16:25:20.648Z,44.75
2023-09-30T16:27:50.181Z,44.62
2023-09-30T16:30:17.377Z,45.42
2023-09-30T16:32:44.380Z,44.80
2023-09-30T16:35:12.471Z,45.40
2023-09-30T16:37:40.492Z,44.34
2023-09-30T16:40:08.160Z,44.94
2023-09-30T16:42:35.359Z,45.17
2023-09-30T16:45:03.025Z,46.54
2023-09-30T16:47:30.323Z,46.03
2023-09-30T16:49:57.172Z,49.79
2023-09-30T16:52:25.915Z,49.12
2023-09-30T16:54:53.198Z,49.90
2023-09-30T16:57:20.276Z,49.65
2023-09-30T16:59:47.109Z,49.85
2023-09-30T17:02:17.610Z,50.46
2023-09-30T17:04:45.244Z,51.90
2023-09-30T17:07:12.157Z,50.99
2023-09-30T17:09:39.137Z,51.47
2023-09-30T17:12:06.391Z,51.15
2023-09-30T17:14:36.382Z,51.52
2023-09-30T17:17:03.668Z,52.82
2023-09-30T17:19:30.568Z,51.18
2023-09-30T17:21:57.521Z,51.21
2023-09-30T17:24:24.389Z,51.78
2023-09-30T17:26:51.155Z,52.23
2023-09-30T17:29:17.920Z,53.13
2023-09-30T17:31:44.963Z,53.87
2023-09-30T17:34:11.870Z,54.66
2023-09-30T17:36:38.863Z,56.12
2023-09-30T17:39:05.707Z,56.75
2023-09-30T17:41:33.326Z,56.35
2023-09-30T17:44:01.850Z,56.35
2023-09-30T17:46:29.236Z,56.10
2023-09-30T17:48:56.172Z,57.49
2023-09-30T17:51:23.002Z,58.20
2023-09-30T17:53:50.551Z,58.48
2023-09-30T17:56:17.678Z,59.34
2023-09-30T17:58:44.489Z,59.40
2023-09-30T18:01:11.284Z,59.75
2023-09-30T18:03:38.143Z,59.29
2023-09-30T18:06:06.619Z,58.98
2023-09-30T18:08:33.377Z,59.55
2023-09-30T18:11:01.090Z,59.06
2023-09-30T18:13:27.826Z,58.05
2023-09-30T18:15:54.518Z,59.45
2023-09-30T18:18:21.263Z,59.48
2023-09-30T18:20:48.489Z,60.05
2023-09-30T18:23:15.372Z,61.86
2023-09-30T18:25:42.357Z,62.13
2023-09-30T18:28:09.259Z,62.26
2023-09-30T18:30:36.063Z,61.69
2023-09-30T18:33:04.391Z,62.11
2023-09-30T18:35:31.218Z,62.66
2023-09-30T18:37:57.970Z,63.07
2023-09-30T18:40:25.144Z,62.87
2023-09-30T18:42:52.018Z,64.17
2023-09-30T18:45:19.040Z,63.45
2023-09-30T18:47:45.840Z,64.33
2023-09-30T18:50:12.721Z,63.40
2023-09-30T18:52:39.456Z,65.57
2023-09-30T18:55:08.221Z,65.11
2023-09-30T18:57:35.176Z,65.22
2023-09-30T19:00:01.974Z,65.29
2023-09-30T19:02:28.725Z,65.49
2023-09-30T19:04:55.385Z,66.07
2023-09-30T19:07:22.267Z,66.19
2023-09-30T19:09:49.019Z,67.29
2023-09-30T19:12:15.697Z,67.68
2023-09-30T19:14:42.878Z,65.80
2023-09-30T19:17:10.177Z,64.92
2023-09-30T19:19:37.181Z,65.84
2023-09-30T19:22:04.060Z,66.01
2023-09-30T19:24:31.052Z,65.68
2023-09-30T19:26:57.701Z,64.87
2023-09-30T19:29:24.385Z,65.58
2023-09-30T19:31:51.295Z,66.34
2023-09-30T19:34:18.841Z,66.16
2023-09-30T19:36:46.026Z,66.76
2023-09-30T19:39:12.828Z,66.59
2023-09-30T19:41:40.968Z,65.60
2023-09-30T19:44:10.084Z,65.46
2023-09-30T19:46:36.944Z,65.20
2023-09-30T19:49:03.807Z,64.97
2023-09-30T19:51:30.601Z,66.47
2023-09-30T19:53:57.359Z,66.37
2023-09-30T19:56:24.739Z,66.12
2023-09-30T19:58:51.397Z,65.92
2023-09-30T20:01:21.095Z,65.47
2023-09-30T20:03:48.620Z,65.09
2023-09-30T20:06:19.342Z,65.35
2023-09-30T20:08:46.550Z,66.26
2023-09-30T20:11:22.909Z,66.70
2023-09-30T20:13:50.417Z,67.55
2023-09-30T20:16:17.338Z,67.02
2023-09-30T20:18:44.773Z,67.08
2023-09-30T20:21:11.561Z,67.05
2023-09-30T20:23:38.471Z,67.78
2023-09-30T20:26:05.979Z,68.28
2023-09-30T20:28:33.319Z,68.07
2023-09-30T20:31:02.493Z,68.86
2023-09-30T20:33:29.257Z,67.85
2023-09-30T20:35:56.001Z,67.77
2023-09-30T20:38:22.748Z,68.34
2023-09-30T20:40:49.471Z,67.68
2023-09-30T20:43:19.309Z,68.02
2023-09-30T20:45:46.099Z,70.32
2023-09-30T20:48:13.082Z,70.05
2023-09-30T20:50:39.899Z,69.25
2023-09-30T20:53:06.835Z,69.00
2023-09-30T20:55:35.219Z,70.13
2023-09-30T20:58:01.911Z,69.29
2023-09-30T21:00:28.804Z,69.59
2023-09-30T21:02:58.455Z,70.50
2023-09-30T21:05:25.411Z,69.14
2023-09-30T21:07:52.323Z,69.11
2023-09-30T21:10:19.067Z,68.87
2023-09-30T21:12:46.031Z,69.95
2023-09-30T21:15:13.318Z,70.37
2023-09-30T21:17:40.139Z,71.52
2023-09-30T21:20:09.220Z,72.83
2023-09-30T21:22:36.005Z,72.65
2023-09-30T21:25:03.101Z,72.26
2023-09-30T21:27:30.367Z,72.95
2023-09-30T21:29:57.189Z,73.54
2023-09-30T21:32:24.042Z,72.87
2023-09-30T21:34:50.784Z,74.07
2023-09-30T21:37:17.490Z,74.63
2023-09-30T21:39:44.417Z,73.24
2023-09-30T21:42:11.120Z,72.42
2023-09-30T21:44:37.920Z,72.32
2023-09-30T21:47:04.600Z,73.24
2023-09-30T21:49:31.312Z,74.85
2023-09-30T21:51:58.415Z,75.88
2023-09-30T21:54:25.229Z,75.70
2023-09-30T21:56:52.149Z,75.02
2023-09-30T21:59:18.754Z,73.72
2023-09-30T22:01:48.548Z,72.89
2023-09-30T22:04:17.451Z,73.96
2023-09-30T22:06:44.204Z,75.30
2023-09-30T22:09:10.868Z,77.04
2023-09-30T22:11:37.649Z,76.34
2023-09-30T22:14:06.232Z,75.60
2023-09-30T22:16:33.601Z,74.87
2023-09-30T22:19:00.592Z,75.46
2023-09-30T22:21:27.419Z,75.30
2023-09-30T22:23:54.384Z,76.50
2023-09-30T22:26:21.098Z,76.29
2023-09-30T22:28:47.893Z,76.71
2023-09-30T22:31:16.283Z,75.69
2023-09-30T22:33:43.238Z,74.68
2023-09-30T22:36:10.101Z,76.64
2023-09-30T22:38:36.863Z,75.57
2023-09-30T22:41:03.505Z,75.82
2023-09-30T22:43:30.305Z,74.90
2023-09-30T22:45:57.170Z,75.11
2023-09-30T22:48:24.108Z,75.25
2023-09-30T22:50:50.849Z,74.18
2023-09-30T22:53:17.605Z,74.17
2023-09-30T22:55:45.216Z,73.71
2023-09-30T22:58:11.999Z,74.50
2023-09-30T23:00:40.514Z,73.52
2023-09-30T23:03:07.222Z,74.71
2023-09-30T23:05:33.913Z,73.11
2023-09-30T23:08:01.857Z,74.13
2023-09-30T23:10:28.747Z,74.11
2023-09-30T23:12:55.521Z,73.72
2023-09-30T23:15:23.596Z,75.17
2023-09-30T23:17:50.768Z,74.63
2023-09-30T23:20:21.741Z,74.26
2023-09-30T23:22:53.873Z,75.29
2023-09-30T23:25:36.015Z,75.77
2023-09-30T23:28:04.066Z,77.08
2023-09-30T23:30:30.982Z,76.55
2023-09-30T23:32:59.356Z,76.93
2023-09-30T23:35:27.977Z,76.80
2023-09-30T23:37:58.802Z,76.53
2023-09-30T23:40:26.036Z,75.80
2023-09-30T23:42:55.238Z,75.87
2023-09-30T23:45:23.098Z,75.25
2023-09-30T23:47:52.501Z,75.88
2023-09-30T23:50:20.502Z,74.91
2023-09-30T23:52:52.665Z,76.02
2023-09-30T23:55:23.627Z,77.46
2023-09-30T23:57:50.661Z,76.75
